sensor_id;sensor_type;location;lat;lon;timestamp;temperature;humidity
25248;DHT22;13191;47.472;11.214;2022-09-03T00:01:34;14.10;99.90
25248;DHT22;13191;47.472;11.214;2022-09-03T00:04:07;14.10;99.90
25248;DHT22;13191;47.472;11.214;2022-09-03T00:06:42;14.00;99.90
25248;DHT22;13191;47.472;11.214;2022-09-03T00:09:18;13.90;99.90
25248;DHT22;13191;47.472;11.214;2022-09-03T00:12:10;13.90;99.90
25248;DHT22;13191;47.472;11.214;2022-09-03T00:14:45;13.90;99.90
25248;DHT22;13191;47.472;11.214;2022-09-03T00:17:37;13.80;99.90
25248;DHT22;13191;47.472;11.214;2022-09-03T00:22:36;13.90;99.90
25248;DHT22;13191;47.472;11.214;2022-09-03T00:25:08;13.90;99.90
25248;DHT22;13191;47.472;11.214;2022-09-03T00:27:39;13.90;99.90
25248;DHT22;13191;47.472;11.214;2022-09-03T00:30:12;13.90;99.90
25248;DHT22;13191;47.472;11.214;2022-09-03T00:33:10;14.00;99.90
25248;DHT22;13191;47.472;11.214;2022-09-03T00:36:18;13.90;99.90
25248;DHT22;13191;47.472;11.214;2022-09-03T00:38:37;13.80;99.90
25248;DHT22;13191;47.472;11.214;2022-09-03T00:41:13;13.80;99.90
25248;DHT22;13191;47.472;11.214;2022-09-03T00:49:46;13.90;99.90
25248;DHT22;13191;47.472;11.214;2022-09-03T00:52:19;13.90;99.90
25248;DHT22;13191;47.472;11.214;2022-09-03T00:55:08;14.00;99.90
25248;DHT22;13191;47.472;11.214;2022-09-03T00:57:53;13.90;99.90
25248;DHT22;13191;47.472;11.214;2022-09-03T01:00:23;13.90;99.90
25248;DHT22;13191;47.472;11.214;2022-09-03T01:14:05;13.80;99.90
25248;DHT22;13191;47.472;11.214;2022-09-03T01:19:03;14.00;99.90
25248;DHT22;13191;47.472;11.214;2022-09-03T01:32:23;14.00;99.90
25248;DHT22;13191;47.472;11.214;2022-09-03T01:40:53;14.10;99.90
25248;DHT22;13191;47.472;11.214;2022-09-03T01:43:42;14.00;99.90
25248;DHT22;13191;47.472;11.214;2022-09-03T01:46:22;14.10;99.90
25248;DHT22;13191;47.472;11.214;2022-09-03T01:51:35;14.10;99.90
25248;DHT22;13191;47.472;11.214;2022-09-03T01:54:30;14.10;99.90
25248;DHT22;13191;47.472;11.214;2022-09-03T02:02:20;13.70;99.90
25248;DHT22;13191;47.472;11.214;2022-09-03T02:05:10;13.70;99.90
25248;DHT22;13191;47.472;11.214;2022-09-03T02:07:43;13.80;99.90
25248;DHT22;13191;47.472;11.214;2022-09-03T02:10:15;13.80;99.90
25248;DHT22;13191;47.472;11.214;2022-09-03T02:12:45;13.90;99.90
25248;DHT22;13191;47.472;11.214;2022-09-03T02:15:14;14.00;99.90
25248;DHT22;13191;47.472;11.214;2022-09-03T02:17:42;14.00;99.90
25248;DHT22;13191;47.472;11.214;2022-09-03T02:20:11;14.10;99.90
25248;DHT22;13191;47.472;11.214;2022-09-03T02:22:41;14.10;99.90
25248;DHT22;13191;47.472;11.214;2022-09-03T02:25:08;14.10;99.90
25248;DHT22;13191;47.472;11.214;2022-09-03T02:27:36;14.10;99.90
25248;DHT22;13191;47.472;11.214;2022-09-03T02:30:03;14.10;99.90
25248;DHT22;13191;47.472;11.214;2022-09-03T02:32:29;14.10;99.90
25248;DHT22;13191;47.472;11.214;2022-09-03T02:34:55;14.00;99.90
25248;DHT22;13191;47.472;11.214;2022-09-03T02:37:21;14.00;99.90
25248;DHT22;13191;47.472;11.214;2022-09-03T02:39:47;14.00;99.90
25248;DHT22;13191;47.472;11.214;2022-09-03T02:42:13;14.00;99.90
25248;DHT22;13191;47.472;11.214;2022-09-03T02:44:45;14.00;99.90
25248;DHT22;13191;47.472;11.214;2022-09-03T02:47:12;13.90;99.90
25248;DHT22;13191;47.472;11.214;2022-09-03T02:49:39;13.90;99.90
25248;DHT22;13191;47.472;11.214;2022-09-03T02:52:07;13.90;99.90
25248;DHT22;13191;47.472;11.214;2022-09-03T02:54:37;14.00;99.90
25248;DHT22;13191;47.472;11.214;2022-09-03T02:57:08;14.00;99.90
25248;DHT22;13191;47.472;11.214;2022-09-03T02:59:34;14.00;99.90
25248;DHT22;13191;47.472;11.214;2022-09-03T03:02:01;13.90;99.90
25248;DHT22;13191;47.472;11.214;2022-09-03T03:04:27;13.90;99.90
25248;DHT22;13191;47.472;11.214;2022-09-03T03:06:53;13.90;99.90
25248;DHT22;13191;47.472;11.214;2022-09-03T03:09:19;13.90;99.90
25248;DHT22;13191;47.472;11.214;2022-09-03T03:11:44;13.90;99.90
25248;DHT22;13191;47.472;11.214;2022-09-03T03:14:11;13.80;99.90
25248;DHT22;13191;47.472;11.214;2022-09-03T03:16:36;13.60;99.90
25248;DHT22;13191;47.472;11.214;2022-09-03T03:19:02;13.50;99.90
25248;DHT22;13191;47.472;11.214;2022-09-03T03:21:28;13.40;99.90
25248;DHT22;13191;47.472;11.214;2022-09-03T03:23:54;13.30;99.90
25248;DHT22;13191;47.472;11.214;2022-09-03T03:26:20;13.40;99.90
25248;DHT22;13191;47.472;11.214;2022-09-03T03:28:48;13.40;99.90
25248;DHT22;13191;47.472;11.214;2022-09-03T03:31:19;13.50;99.90
25248;DHT22;13191;47.472;11.214;2022-09-03T03:33:56;13.50;99.90
25248;DHT22;13191;47.472;11.214;2022-09-03T03:36:23;13.50;99.90
25248;DHT22;13191;47.472;11.214;2022-09-03T03:38:53;13.50;99.90
25248;DHT22;13191;47.472;11.214;2022-09-03T03:41:21;13.40;99.90
25248;DHT22;13191;47.472;11.214;2022-09-03T03:43:47;13.30;99.90
25248;DHT22;13191;47.472;11.214;2022-09-03T03:46:17;13.40;99.90
25248;DHT22;13191;47.472;11.214;2022-09-03T03:48:42;13.40;99.90
25248;DHT22;13191;47.472;11.214;2022-09-03T03:51:09;13.40;99.90
25248;DHT22;13191;47.472;11.214;2022-09-03T03:53:38;13.40;99.90
25248;DHT22;13191;47.472;11.214;2022-09-03T03:56:06;13.20;99.90
25248;DHT22;13191;47.472;11.214;2022-09-03T03:58:32;12.90;99.90
25248;DHT22;13191;47.472;11.214;2022-09-03T04:01:09;12.80;99.90
25248;DHT22;13191;47.472;11.214;2022-09-03T04:03:36;12.70;99.90
25248;DHT22;13191;47.472;11.214;2022-09-03T04:06:02;12.70;99.90
25248;DHT22;13191;47.472;11.214;2022-09-03T04:08:29;12.80;99.90
25248;DHT22;13191;47.472;11.214;2022-09-03T04:10:59;12.90;99.90
25248;DHT22;13191;47.472;11.214;2022-09-03T04:13:28;12.90;99.90
25248;DHT22;13191;47.472;11.214;2022-09-03T04:16:00;12.90;99.90
25248;DHT22;13191;47.472;11.214;2022-09-03T04:18:26;12.90;99.90
25248;DHT22;13191;47.472;11.214;2022-09-03T04:20:52;12.90;99.90
25248;DHT22;13191;47.472;11.214;2022-09-03T04:23:17;12.90;99.90
25248;DHT22;13191;47.472;11.214;2022-09-03T04:25:43;13.00;99.90
25248;DHT22;13191;47.472;11.214;2022-09-03T04:28:09;12.70;99.90
25248;DHT22;13191;47.472;11.214;2022-09-03T04:30:36;12.60;99.90
25248;DHT22;13191;47.472;11.214;2022-09-03T04:33:01;12.60;99.90
25248;DHT22;13191;47.472;11.214;2022-09-03T04:35:27;12.60;99.90
25248;DHT22;13191;47.472;11.214;2022-09-03T04:37:57;12.60;99.90
25248;DHT22;13191;47.472;11.214;2022-09-03T04:40:22;12.60;99.90
25248;DHT22;13191;47.472;11.214;2022-09-03T04:42:48;12.50;99.90
25248;DHT22;13191;47.472;11.214;2022-09-03T04:45:13;12.50;99.90
25248;DHT22;13191;47.472;11.214;2022-09-03T04:47:44;12.50;99.90
25248;DHT22;13191;47.472;11.214;2022-09-03T04:50:11;12.60;99.90
25248;DHT22;13191;47.472;11.214;2022-09-03T04:52:37;12.60;99.90
25248;DHT22;13191;47.472;11.214;2022-09-03T04:55:03;12.60;99.90
25248;DHT22;13191;47.472;11.214;2022-09-03T04:57:29;12.60;99.90
25248;DHT22;13191;47.472;11.214;2022-09-03T04:59:59;12.70;99.90
25248;DHT22;13191;47.472;11.214;2022-09-03T05:02:25;12.50;99.90
25248;DHT22;13191;47.472;11.214;2022-09-03T05:04:50;12.40;99.90
25248;DHT22;13191;47.472;11.214;2022-09-03T05:07:17;12.40;99.90
25248;DHT22;13191;47.472;11.214;2022-09-03T05:09:44;12.40;99.90
25248;DHT22;13191;47.472;11.214;2022-09-03T05:12:12;12.40;99.90
25248;DHT22;13191;47.472;11.214;2022-09-03T05:14:38;12.40;99.90
25248;DHT22;13191;47.472;11.214;2022-09-03T05:17:03;12.50;99.90
25248;DHT22;13191;47.472;11.214;2022-09-03T05:19:29;12.30;99.90
25248;DHT22;13191;47.472;11.214;2022-09-03T05:21:55;12.20;99.90
25248;DHT22;13191;47.472;11.214;2022-09-03T05:24:21;12.30;99.90
25248;DHT22;13191;47.472;11.214;2022-09-03T05:26:47;12.30;99.90
25248;DHT22;13191;47.472;11.214;2022-09-03T05:29:13;12.40;99.90
25248;DHT22;13191;47.472;11.214;2022-09-03T05:31:40;12.40;99.90
25248;DHT22;13191;47.472;11.214;2022-09-03T05:34:06;12.40;99.90
25248;DHT22;13191;47.472;11.214;2022-09-03T05:36:34;12.30;99.90
25248;DHT22;13191;47.472;11.214;2022-09-03T05:39:00;12.20;99.90
25248;DHT22;13191;47.472;11.214;2022-09-03T05:41:26;12.20;99.90
25248;DHT22;13191;47.472;11.214;2022-09-03T05:43:53;12.20;99.90
25248;DHT22;13191;47.472;11.214;2022-09-03T05:46:30;12.20;99.90
25248;DHT22;13191;47.472;11.214;2022-09-03T05:49:01;12.20;99.90
25248;DHT22;13191;47.472;11.214;2022-09-03T05:51:28;12.30;99.90
25248;DHT22;13191;47.472;11.214;2022-09-03T05:53:54;12.30;99.90
25248;DHT22;13191;47.472;11.214;2022-09-03T05:56:22;12.40;99.90
25248;DHT22;13191;47.472;11.214;2022-09-03T05:58:51;12.50;99.90
25248;DHT22;13191;47.472;11.214;2022-09-03T06:03:47;12.80;99.90
25248;DHT22;13191;47.472;11.214;2022-09-03T06:06:17;12.80;99.90
25248;DHT22;13191;47.472;11.214;2022-09-03T06:08:42;12.90;99.90
25248;DHT22;13191;47.472;11.214;2022-09-03T06:11:09;13.00;99.90
25248;DHT22;13191;47.472;11.214;2022-09-03T06:13:35;13.10;99.90
25248;DHT22;13191;47.472;11.214;2022-09-03T06:16:06;13.10;99.90
25248;DHT22;13191;47.472;11.214;2022-09-03T06:18:32;13.20;99.90
25248;DHT22;13191;47.472;11.214;2022-09-03T06:21:03;13.10;99.90
25248;DHT22;13191;47.472;11.214;2022-09-03T06:23:30;13.20;99.90
25248;DHT22;13191;47.472;11.214;2022-09-03T06:26:08;13.30;99.90
25248;DHT22;13191;47.472;11.214;2022-09-03T06:28:37;13.40;99.90
25248;DHT22;13191;47.472;11.214;2022-09-03T06:31:04;13.50;99.90
25248;DHT22;13191;47.472;11.214;2022-09-03T06:33:35;13.60;99.90
25248;DHT22;13191;47.472;11.214;2022-09-03T06:36:06;13.80;99.90
25248;DHT22;13191;47.472;11.214;2022-09-03T06:38:33;13.80;99.90
25248;DHT22;13191;47.472;11.214;2022-09-03T06:41:04;13.90;99.90
25248;DHT22;13191;47.472;11.214;2022-09-03T06:43:33;14.00;99.90
25248;DHT22;13191;47.472;11.214;2022-09-03T06:46:02;14.10;99.90
25248;DHT22;13191;47.472;11.214;2022-09-03T06:48:30;14.20;99.90
25248;DHT22;13191;47.472;11.214;2022-09-03T06:51:01;14.30;99.90
25248;DHT22;13191;47.472;11.214;2022-09-03T06:53:29;14.40;99.90
25248;DHT22;13191;47.472;11.214;2022-09-03T06:55:58;14.30;99.90
25248;DHT22;13191;47.472;11.214;2022-09-03T06:58:27;14.40;99.90
25248;DHT22;13191;47.472;11.214;2022-09-03T07:00:53;14.50;99.90
25248;DHT22;13191;47.472;11.214;2022-09-03T07:03:19;14.60;99.90
25248;DHT22;13191;47.472;11.214;2022-09-03T07:05:46;14.70;99.90
25248;DHT22;13191;47.472;11.214;2022-09-03T07:10:37;14.90;99.90
25248;DHT22;13191;47.472;11.214;2022-09-03T07:13:04;14.90;99.90
25248;DHT22;13191;47.472;11.214;2022-09-03T07:15:32;15.00;99.90
25248;DHT22;13191;47.472;11.214;2022-09-03T07:17:58;15.10;99.90
25248;DHT22;13191;47.472;11.214;2022-09-03T07:20:23;15.20;99.90
25248;DHT22;13191;47.472;11.214;2022-09-03T07:22:49;15.30;99.90
25248;DHT22;13191;47.472;11.214;2022-09-03T07:25:14;15.30;99.90
25248;DHT22;13191;47.472;11.214;2022-09-03T07:27:40;15.40;99.90
25248;DHT22;13191;47.472;11.214;2022-09-03T07:30:06;15.40;99.90
25248;DHT22;13191;47.472;11.214;2022-09-03T07:32:34;15.50;99.90
25248;DHT22;13191;47.472;11.214;2022-09-03T07:35:01;15.50;99.90
25248;DHT22;13191;47.472;11.214;2022-09-03T07:37:27;15.60;99.90
25248;DHT22;13191;47.472;11.214;2022-09-03T07:39:53;15.70;99.90
25248;DHT22;13191;47.472;11.214;2022-09-03T07:42:18;15.80;99.90
25248;DHT22;13191;47.472;11.214;2022-09-03T07:44:45;15.80;99.90
25248;DHT22;13191;47.472;11.214;2022-09-03T07:47:10;15.90;99.90
25248;DHT22;13191;47.472;11.214;2022-09-03T07:49:37;15.90;99.90
25248;DHT22;13191;47.472;11.214;2022-09-03T07:52:03;16.00;99.90
25248;DHT22;13191;47.472;11.214;2022-09-03T07:54:29;16.10;99.90
25248;DHT22;13191;47.472;11.214;2022-09-03T07:56:55;16.20;99.90
25248;DHT22;13191;47.472;11.214;2022-09-03T07:59:21;16.20;99.90
25248;DHT22;13191;47.472;11.214;2022-09-03T08:01:48;16.30;99.90
25248;DHT22;13191;47.472;11.214;2022-09-03T08:04:15;16.40;99.90
25248;DHT22;13191;47.472;11.214;2022-09-03T08:06:41;16.50;99.90
25248;DHT22;13191;47.472;11.214;2022-09-03T08:09:08;16.60;99.90
25248;DHT22;13191;47.472;11.214;2022-09-03T08:11:38;16.80;99.90
25248;DHT22;13191;47.472;11.214;2022-09-03T08:14:06;16.90;99.90
25248;DHT22;13191;47.472;11.214;2022-09-03T08:16:44;17.00;99.90
25248;DHT22;13191;47.472;11.214;2022-09-03T08:19:11;17.00;99.90
25248;DHT22;13191;47.472;11.214;2022-09-03T08:21:37;17.10;99.90
25248;DHT22;13191;47.472;11.214;2022-09-03T08:24:06;17.20;99.90
25248;DHT22;13191;47.472;11.214;2022-09-03T08:26:36;17.30;99.90
25248;DHT22;13191;47.472;11.214;2022-09-03T08:29:03;17.30;99.90
25248;DHT22;13191;47.472;11.214;2022-09-03T08:31:30;17.40;99.90
25248;DHT22;13191;47.472;11.214;2022-09-03T08:33:57;17.50;99.90
25248;DHT22;13191;47.472;11.214;2022-09-03T08:36:25;17.60;99.90
25248;DHT22;13191;47.472;11.214;2022-09-03T08:38:53;17.60;99.90
25248;DHT22;13191;47.472;11.214;2022-09-03T08:44:46;17.70;99.90
25248;DHT22;13191;47.472;11.214;2022-09-03T08:47:31;17.80;99.90
25248;DHT22;13191;47.472;11.214;2022-09-03T08:50:12;17.90;99.90
25248;DHT22;13191;47.472;11.214;2022-09-03T08:52:56;18.10;99.90
25248;DHT22;13191;47.472;11.214;2022-09-03T08:55:34;18.10;99.90
25248;DHT22;13191;47.472;11.214;2022-09-03T08:58:12;18.30;99.90
25248;DHT22;13191;47.472;11.214;2022-09-03T09:01:00;18.40;99.90
25248;DHT22;13191;47.472;11.214;2022-09-03T09:03:41;18.50;99.90
25248;DHT22;13191;47.472;11.214;2022-09-03T09:14:31;18.70;99.90
25248;DHT22;13191;47.472;11.214;2022-09-03T09:17:14;18.90;99.90
25248;DHT22;13191;47.472;11.214;2022-09-03T09:20:04;18.90;99.90
25248;DHT22;13191;47.472;11.214;2022-09-03T09:22:37;18.90;99.90
25248;DHT22;13191;47.472;11.214;2022-09-03T09:25:12;19.00;99.90
25248;DHT22;13191;47.472;11.214;2022-09-03T09:28:01;19.00;99.90
25248;DHT22;13191;47.472;11.214;2022-09-03T09:30:28;19.00;99.90
25248;DHT22;13191;47.472;11.214;2022-09-03T09:32:55;19.10;99.90
25248;DHT22;13191;47.472;11.214;2022-09-03T09:35:20;19.10;99.90
25248;DHT22;13191;47.472;11.214;2022-09-03T09:37:57;19.10;99.90
25248;DHT22;13191;47.472;11.214;2022-09-03T09:43:03;19.10;99.90
25248;DHT22;13191;47.472;11.214;2022-09-03T09:45:29;19.20;99.90
25248;DHT22;13191;47.472;11.214;2022-09-03T09:47:56;19.30;99.90
25248;DHT22;13191;47.472;11.214;2022-09-03T09:50:22;19.30;99.90
25248;DHT22;13191;47.472;11.214;2022-09-03T09:52:47;19.30;99.90
25248;DHT22;13191;47.472;11.214;2022-09-03T09:55:23;19.40;99.90
25248;DHT22;13191;47.472;11.214;2022-09-03T09:57:52;19.40;99.90
25248;DHT22;13191;47.472;11.214;2022-09-03T10:02:59;19.50;99.90
25248;DHT22;13191;47.472;11.214;2022-09-03T10:05:30;19.60;99.90
25248;DHT22;13191;47.472;11.214;2022-09-03T10:08:00;19.60;99.90
25248;DHT22;13191;47.472;11.214;2022-09-03T10:10:26;19.60;99.90
25248;DHT22;13191;47.472;11.214;2022-09-03T10:13:00;19.60;99.90
25248;DHT22;13191;47.472;11.214;2022-09-03T10:20:58;19.70;99.90
25248;DHT22;13191;47.472;11.214;2022-09-03T10:23:31;19.80;99.90
25248;DHT22;13191;47.472;11.214;2022-09-03T10:26:06;19.80;99.90
25248;DHT22;13191;47.472;11.214;2022-09-03T10:28:35;19.90;99.90
25248;DHT22;13191;47.472;11.214;2022-09-03T10:34:01;19.90;99.90
25248;DHT22;13191;47.472;11.214;2022-09-03T10:36:38;19.90;99.90
25248;DHT22;13191;47.472;11.214;2022-09-03T10:39:39;20.00;99.90
25248;DHT22;13191;47.472;11.214;2022-09-03T10:42:34;20.00;99.90
25248;DHT22;13191;47.472;11.214;2022-09-03T10:45:36;20.00;99.90
25248;DHT22;13191;47.472;11.214;2022-09-03T10:48:30;20.10;99.90
25248;DHT22;13191;47.472;11.214;2022-09-03T10:51:16;20.10;99.90
25248;DHT22;13191;47.472;11.214;2022-09-03T10:57:16;20.40;99.90
25248;DHT22;13191;47.472;11.214;2022-09-03T11:03:03;20.70;99.90
25248;DHT22;13191;47.472;11.214;2022-09-03T11:05:40;20.80;99.90
25248;DHT22;13191;47.472;11.214;2022-09-03T11:08:15;20.90;99.90
25248;DHT22;13191;47.472;11.214;2022-09-03T11:10:50;21.00;99.90
25248;DHT22;13191;47.472;11.214;2022-09-03T11:13:21;21.00;99.90
25248;DHT22;13191;47.472;11.214;2022-09-03T11:16:33;21.10;99.90
25248;DHT22;13191;47.472;11.214;2022-09-03T11:18:59;21.10;99.90
25248;DHT22;13191;47.472;11.214;2022-09-03T11:21:29;21.20;99.90
25248;DHT22;13191;47.472;11.214;2022-09-03T11:26:35;21.30;99.90
25248;DHT22;13191;47.472;11.214;2022-09-03T11:34:51;21.50;99.90
25248;DHT22;13191;47.472;11.214;2022-09-03T11:37:22;21.60;99.90
25248;DHT22;13191;47.472;11.214;2022-09-03T11:42:37;21.60;99.90
25248;DHT22;13191;47.472;11.214;2022-09-03T11:47:43;21.70;99.90
25248;DHT22;13191;47.472;11.214;2022-09-03T11:50:30;21.80;99.90
25248;DHT22;13191;47.472;11.214;2022-09-03T11:53:09;21.90;99.90
25248;DHT22;13191;47.472;11.214;2022-09-03T11:55:58;22.00;99.90
25248;DHT22;13191;47.472;11.214;2022-09-03T11:58:28;22.20;99.90
25248;DHT22;13191;47.472;11.214;2022-09-03T12:00:55;22.20;99.90
25248;DHT22;13191;47.472;11.214;2022-09-03T12:03:25;22.30;99.90
25248;DHT22;13191;47.472;11.214;2022-09-03T12:11:37;22.70;99.90
25248;DHT22;13191;47.472;11.214;2022-09-03T12:16:46;22.80;99.90
25248;DHT22;13191;47.472;11.214;2022-09-03T12:19:36;22.80;99.90
25248;DHT22;13191;47.472;11.214;2022-09-03T12:22:04;22.80;99.90
25248;DHT22;13191;47.472;11.214;2022-09-03T12:24:30;22.80;99.90
25248;DHT22;13191;47.472;11.214;2022-09-03T12:27:02;22.70;99.90
25248;DHT22;13191;47.472;11.214;2022-09-03T12:29:30;22.70;99.90
25248;DHT22;13191;47.472;11.214;2022-09-03T12:32:04;22.80;99.90
25248;DHT22;13191;47.472;11.214;2022-09-03T12:34:30;22.90;99.90
25248;DHT22;13191;47.472;11.214;2022-09-03T12:36:56;22.90;99.90
25248;DHT22;13191;47.472;11.214;2022-09-03T12:39:27;23.00;99.90
25248;DHT22;13191;47.472;11.214;2022-09-03T12:42:02;23.10;99.90
25248;DHT22;13191;47.472;11.214;2022-09-03T12:47:21;23.10;99.90
25248;DHT22;13191;47.472;11.214;2022-09-03T12:49:55;23.10;99.90
25248;DHT22;13191;47.472;11.214;2022-09-03T12:52:34;23.00;99.90
25248;DHT22;13191;47.472;11.214;2022-09-03T12:55:34;23.00;99.90
25248;DHT22;13191;47.472;11.214;2022-09-03T12:58:17;23.00;99.90
25248;DHT22;13191;47.472;11.214;2022-09-03T13:00:58;23.00;99.90
25248;DHT22;13191;47.472;11.214;2022-09-03T13:06:01;23.00;99.90
25248;DHT22;13191;47.472;11.214;2022-09-03T13:08:31;23.00;99.90
25248;DHT22;13191;47.472;11.214;2022-09-03T13:11:00;23.00;99.90
25248;DHT22;13191;47.472;11.214;2022-09-03T13:13:31;23.00;99.90
25248;DHT22;13191;47.472;11.214;2022-09-03T13:16:25;23.10;99.90
25248;DHT22;13191;47.472;11.214;2022-09-03T13:24:03;23.70;99.90
25248;DHT22;13191;47.472;11.214;2022-09-03T13:26:52;23.80;99.90
25248;DHT22;13191;47.472;11.214;2022-09-03T13:29:37;23.80;99.90
25248;DHT22;13191;47.472;11.214;2022-09-03T13:32:25;23.80;99.90
25248;DHT22;13191;47.472;11.214;2022-09-03T13:34:56;23.80;99.90
25248;DHT22;13191;47.472;11.214;2022-09-03T13:37:32;23.70;99.90
25248;DHT22;13191;47.472;11.214;2022-09-03T13:40:14;23.60;99.90
25248;DHT22;13191;47.472;11.214;2022-09-03T13:42:47;23.50;99.90
25248;DHT22;13191;47.472;11.214;2022-09-03T13:48:15;23.30;99.90
25248;DHT22;13191;47.472;11.214;2022-09-03T13:51:17;23.20;99.90
25248;DHT22;13191;47.472;11.214;2022-09-03T13:53:56;23.10;99.90
25248;DHT22;13191;47.472;11.214;2022-09-03T13:56:52;23.00;99.90
25248;DHT22;13191;47.472;11.214;2022-09-03T13:59:34;23.00;99.90
25248;DHT22;13191;47.472;11.214;2022-09-03T14:10:30;22.50;99.90
25248;DHT22;13191;47.472;11.214;2022-09-03T14:13:17;21.90;99.90
25248;DHT22;13191;47.472;11.214;2022-09-03T14:15:51;21.10;99.90
25248;DHT22;13191;47.472;11.214;2022-09-03T14:18:36;20.40;99.90
25248;DHT22;13191;47.472;11.214;2022-09-03T14:21:19;19.50;99.90
25248;DHT22;13191;47.472;11.214;2022-09-03T14:23:52;18.90;99.90
25248;DHT22;13191;47.472;11.214;2022-09-03T14:26:36;18.50;99.90
25248;DHT22;13191;47.472;11.214;2022-09-03T14:29:49;18.00;99.90
25248;DHT22;13191;47.472;11.214;2022-09-03T14:32:18;17.60;99.90
25248;DHT22;13191;47.472;11.214;2022-09-03T14:40:20;16.20;99.90
25248;DHT22;13191;47.472;11.214;2022-09-03T14:43:09;16.00;99.90
25248;DHT22;13191;47.472;11.214;2022-09-03T14:46:00;15.90;99.90
25248;DHT22;13191;47.472;11.214;2022-09-03T14:48:54;15.90;99.90
25248;DHT22;13191;47.472;11.214;2022-09-03T15:03:13;15.70;99.90
25248;DHT22;13191;47.472;11.214;2022-09-03T15:08:38;15.90;99.90
25248;DHT22;13191;47.472;11.214;2022-09-03T15:11:16;16.10;99.90
25248;DHT22;13191;47.472;11.214;2022-09-03T15:17:00;16.30;99.90
25248;DHT22;13191;47.472;11.214;2022-09-03T15:19:52;16.30;99.90
25248;DHT22;13191;47.472;11.214;2022-09-03T15:22:56;16.40;99.90
25248;DHT22;13191;47.472;11.214;2022-09-03T15:25:32;16.40;99.90
25248;DHT22;13191;47.472;11.214;2022-09-03T15:28:37;16.40;99.90
25248;DHT22;13191;47.472;11.214;2022-09-03T15:31:11;16.40;99.90
25248;DHT22;13191;47.472;11.214;2022-09-03T15:37:01;16.30;99.90
25248;DHT22;13191;47.472;11.214;2022-09-03T15:39:34;16.30;99.90
25248;DHT22;13191;47.472;11.214;2022-09-03T15:42:06;16.30;99.90
25248;DHT22;13191;47.472;11.214;2022-09-03T15:44:55;16.40;99.90
25248;DHT22;13191;47.472;11.214;2022-09-03T15:47:39;16.50;99.90
25248;DHT22;13191;47.472;11.214;2022-09-03T15:50:31;16.60;99.90
25248;DHT22;13191;47.472;11.214;2022-09-03T16:02:11;16.90;99.90
25248;DHT22;13191;47.472;11.214;2022-09-03T16:07:48;17.10;99.90
25248;DHT22;13191;47.472;11.214;2022-09-03T16:10:21;17.20;99.90
25248;DHT22;13191;47.472;11.214;2022-09-03T16:18:25;17.70;99.90
25248;DHT22;13191;47.472;11.214;2022-09-03T16:20:57;17.80;99.90
25248;DHT22;13191;47.472;11.214;2022-09-03T16:26:12;18.10;99.90
25248;DHT22;13191;47.472;11.214;2022-09-03T16:28:47;18.40;99.90
25248;DHT22;13191;47.472;11.214;2022-09-03T16:31:58;18.40;99.90
25248;DHT22;13191;47.472;11.214;2022-09-03T16:42:32;18.30;99.90
25248;DHT22;13191;47.472;11.214;2022-09-03T16:45:34;18.10;99.90
25248;DHT22;13191;47.472;11.214;2022-09-03T16:51:01;17.80;99.90
25248;DHT22;13191;47.472;11.214;2022-09-03T16:53:43;17.80;99.90
25248;DHT22;13191;47.472;11.214;2022-09-03T16:59:14;17.90;99.90
25248;DHT22;13191;47.472;11.214;2022-09-03T17:07:35;17.80;99.90
25248;DHT22;13191;47.472;11.214;2022-09-03T17:21:46;17.90;99.90
25248;DHT22;13191;47.472;11.214;2022-09-03T17:27:22;17.80;99.90
25248;DHT22;13191;47.472;11.214;2022-09-03T17:32:55;17.60;99.90
25248;DHT22;13191;47.472;11.214;2022-09-03T17:36:20;17.60;99.90
25248;DHT22;13191;47.472;11.214;2022-09-03T17:41:27;17.50;99.90
25248;DHT22;13191;47.472;11.214;2022-09-03T17:44:20;17.40;99.90
25248;DHT22;13191;47.472;11.214;2022-09-03T17:47:05;17.30;99.90
25248;DHT22;13191;47.472;11.214;2022-09-03T17:49:41;17.30;99.90
25248;DHT22;13191;47.472;11.214;2022-09-03T17:52:27;17.20;99.90
25248;DHT22;13191;47.472;11.214;2022-09-03T17:54:57;17.30;99.90
25248;DHT22;13191;47.472;11.214;2022-09-03T17:57:31;17.00;99.90
25248;DHT22;13191;47.472;11.214;2022-09-03T18:00:07;17.00;99.90
25248;DHT22;13191;47.472;11.214;2022-09-03T18:05:25;16.80;99.90
25248;DHT22;13191;47.472;11.214;2022-09-03T18:08:18;16.70;99.90
25248;DHT22;13191;47.472;11.214;2022-09-03T18:21:35;16.50;99.90
25248;DHT22;13191;47.472;11.214;2022-09-03T18:30:21;16.30;99.90
25248;DHT22;13191;47.472;11.214;2022-09-03T18:33:05;16.30;99.90
25248;DHT22;13191;47.472;11.214;2022-09-03T18:35:49;16.20;99.90
25248;DHT22;13191;47.472;11.214;2022-09-03T18:38:36;16.10;99.90
25248;DHT22;13191;47.472;11.214;2022-09-03T18:41:33;16.10;99.90
25248;DHT22;13191;47.472;11.214;2022-09-03T18:44:33;16.10;99.90
25248;DHT22;13191;47.472;11.214;2022-09-03T18:50:25;15.90;99.90
25248;DHT22;13191;47.472;11.214;2022-09-03T18:53:17;15.90;99.90
25248;DHT22;13191;47.472;11.214;2022-09-03T19:02:37;15.80;99.90
25248;DHT22;13191;47.472;11.214;2022-09-03T19:05:34;15.70;99.90
25248;DHT22;13191;47.472;11.214;2022-09-03T19:08:24;15.70;99.90
25248;DHT22;13191;47.472;11.214;2022-09-03T19:14:47;15.60;99.90
25248;DHT22;13191;47.472;11.214;2022-09-03T19:18:07;15.60;99.90
25248;DHT22;13191;47.472;11.214;2022-09-03T19:21:32;15.50;99.90
25248;DHT22;13191;47.472;11.214;2022-09-03T19:24:24;15.50;99.90
25248;DHT22;13191;47.472;11.214;2022-09-03T19:27:49;15.40;99.90
25248;DHT22;13191;47.472;11.214;2022-09-03T19:37:24;15.20;99.90
25248;DHT22;13191;47.472;11.214;2022-09-03T19:46:29;15.30;99.90
25248;DHT22;13191;47.472;11.214;2022-09-03T19:52:52;15.30;99.90
25248;DHT22;13191;47.472;11.214;2022-09-03T19:55:44;15.30;99.90
25248;DHT22;13191;47.472;11.214;2022-09-03T19:58:31;15.30;99.90
25248;DHT22;13191;47.472;11.214;2022-09-03T20:01:16;15.20;99.90
25248;DHT22;13191;47.472;11.214;2022-09-03T20:04:12;15.20;99.90
25248;DHT22;13191;47.472;11.214;2022-09-03T20:06:59;15.10;99.90
25248;DHT22;13191;47.472;11.214;2022-09-03T20:09:46;15.10;99.90
25248;DHT22;13191;47.472;11.214;2022-09-03T20:12:34;15.10;99.90
25248;DHT22;13191;47.472;11.214;2022-09-03T20:15:05;15.00;99.90
25248;DHT22;13191;47.472;11.214;2022-09-03T20:25:18;15.00;99.90
25248;DHT22;13191;47.472;11.214;2022-09-03T20:33:49;14.90;99.90
25248;DHT22;13191;47.472;11.214;2022-09-03T20:39:28;14.90;99.90
25248;DHT22;13191;47.472;11.214;2022-09-03T20:44:50;14.70;99.90